Time;durP1;ratioP1;P1;durP2;ratioP2;P2;SDS_P1;SDS_P2;PMS_P1;PMS_P2;Temp;Humidity;BMP_temperature;BMP_pressure;BME280_temperature;BME280_humidity;BME280_pressure;Samples;Min_cycle;Max_cycle;Signal;HPM_P1;HPM_P2
2022/08/03 00:01:42;;;;;;;;;;;22.80;74.60;;;;;;5024825;28;19917;-77
2022/08/03 00:04:08;;;;;;;;;;;22.70;74.50;;;;;;5024678;28;19913;-77
2022/08/03 00:06:34;;;;;;;;;;;22.70;74.90;;;;;;5035541;28;19985;-77
2022/08/03 00:09:00;;;;;;;;;;;22.70;74.90;;;;;;5038626;28;20443;-77
2022/08/03 00:11:26;;;;;;;;;;;22.60;74.80;;;;;;5024766;28;20028;-77
2022/08/03 00:13:51;;;;;;;;;;;22.60;75.20;;;;;;5024557;28;20336;-77
2022/08/03 00:16:17;;;;;;;;;;;22.60;75.10;;;;;;5027985;28;19913;-77
2022/08/03 00:18:43;;;;;;;;;;;22.60;75.30;;;;;;5043001;28;20597;-78
2022/08/03 00:21:08;;;;;;;;;;;22.60;75.50;;;;;;5042929;28;19916;-77
2022/08/03 00:23:34;;;;;;;;;;;22.50;75.40;;;;;;5025997;28;19919;-77
2022/08/03 00:26:00;;;;;;;;;;;22.50;75.50;;;;;;5006697;28;20362;-77
2022/08/03 00:28:26;;;;;;;;;;;22.40;76.40;;;;;;5024037;28;20360;-77
2022/08/03 00:30:51;;;;;;;;;;;22.40;75.70;;;;;;5005964;28;19921;-77
2022/08/03 00:33:17;;;;;;;;;;;22.40;75.80;;;;;;5024017;28;20132;-78
2022/08/03 00:35:42;;;;;;;;;;;22.40;75.90;;;;;;5024326;28;20389;-78
2022/08/03 00:38:08;;;;;;;;;;;22.30;76.10;;;;;;5028418;28;20564;-77
2022/08/03 00:40:33;;;;;;;;;;;22.30;76.10;;;;;;5026293;28;20294;-77
2022/08/03 00:43:03;;;;;;;;;;;22.30;76.40;;;;;;5023881;28;20000;-78
2022/08/03 00:45:30;;;;;;;;;;;22.30;76.30;;;;;;5023625;28;19929;-78
2022/08/03 00:47:56;;;;;;;;;;;22.20;76.20;;;;;;5023090;28;19913;-77
2022/08/03 00:50:26;;;;;;;;;;;22.20;76.60;;;;;;5037077;28;20431;-78
2022/08/03 00:52:53;;;;;;;;;;;22.20;76.80;;;;;;5042426;28;20424;-78
2022/08/03 00:55:19;;;;;;;;;;;22.20;76.90;;;;;;5042929;28;19913;-77
2022/08/03 00:57:44;;;;;;;;;;;22.10;77.00;;;;;;5041675;28;19913;-78
2022/08/03 01:00:11;;;;;;;;;;;22.20;76.90;;;;;;5006373;28;19920;-78
2022/08/03 01:02:37;;;;;;;;;;;22.10;77.00;;;;;;5024143;28;19918;-77
2022/08/03 01:05:03;;;;;;;;;;;22.10;77.30;;;;;;5024060;28;19921;-78
2022/08/03 01:07:32;;;;;;;;;;;22.10;77.20;;;;;;5033681;28;20054;-78
2022/08/03 01:10:26;;;;;;;;;;;22.10;77.30;;;;;;5021592;28;19920;-78
2022/08/03 01:13:03;;;;;;;;;;;22.00;77.10;;;;;;5012030;28;19913;-78
2022/08/03 01:15:41;;;;;;;;;;;22.00;77.50;;;;;;5006043;28;19971;-77
2022/08/03 01:18:23;;;;;;;;;;;22.00;77.60;;;;;;5023242;28;20660;-77
2022/08/03 01:20:54;;;;;;;;;;;21.90;77.70;;;;;;5023574;28;19917;-77
2022/08/03 01:23:22;;;;;;;;;;;21.90;77.60;;;;;;5035473;28;20347;-78
2022/08/03 01:26:06;;;;;;;;;;;21.90;77.70;;;;;;5007219;28;19916;-77
2022/08/03 01:28:40;;;;;;;;;;;21.90;77.90;;;;;;5026354;28;19920;-78
2022/08/03 01:31:07;;;;;;;;;;;21.90;78.00;;;;;;5023485;28;20397;-78
2022/08/03 01:33:39;;;;;;;;;;;21.80;78.10;;;;;;5016097;28;19913;-78
2022/08/03 01:36:06;;;;;;;;;;;21.90;78.10;;;;;;5016598;28;19917;-78
2022/08/03 01:38:33;;;;;;;;;;;21.80;78.30;;;;;;5034900;28;19948;-78
2022/08/03 01:41:07;;;;;;;;;;;21.80;78.00;;;;;;5025897;28;19925;-78
2022/08/03 01:43:33;;;;;;;;;;;21.80;78.30;;;;;;5037229;28;19942;-78
2022/08/03 01:46:00;;;;;;;;;;;21.70;78.40;;;;;;5032228;28;19928;-77
2022/08/03 01:48:26;;;;;;;;;;;21.70;78.50;;;;;;5005239;28;20100;-78
2022/08/03 01:50:54;;;;;;;;;;;21.70;78.60;;;;;;5027859;28;20031;-77
2022/08/03 01:53:21;;;;;;;;;;;21.70;78.60;;;;;;5023600;28;20020;-77
2022/08/03 01:55:48;;;;;;;;;;;21.60;78.70;;;;;;5010320;28;19957;-77
2022/08/03 01:58:15;;;;;;;;;;;21.60;78.60;;;;;;5029107;28;19913;-77
2022/08/03 02:00:41;;;;;;;;;;;21.60;78.80;;;;;;5029665;28;19926;-77
2022/08/03 02:03:07;;;;;;;;;;;21.60;78.70;;;;;;5034790;28;19913;-77
2022/08/03 02:05:33;;;;;;;;;;;21.60;78.90;;;;;;5004706;28;19913;-78
2022/08/03 02:07:59;;;;;;;;;;;21.60;79.00;;;;;;5022437;28;19920;-77
2022/08/03 02:10:26;;;;;;;;;;;21.50;79.10;;;;;;5019889;28;20536;-77
2022/08/03 02:12:52;;;;;;;;;;;21.60;79.30;;;;;;5038553;28;19917;-78
2022/08/03 02:15:18;;;;;;;;;;;21.50;79.20;;;;;;5018733;28;19920;-77
2022/08/03 02:17:44;;;;;;;;;;;21.50;79.30;;;;;;5033940;28;19916;-78
2022/08/03 02:20:10;;;;;;;;;;;21.50;79.50;;;;;;5019882;28;19964;-78
2022/08/03 02:22:38;;;;;;;;;;;21.50;79.50;;;;;;5031572;28;19917;-78
2022/08/03 02:25:04;;;;;;;;;;;21.50;79.50;;;;;;5022864;28;19913;-78
2022/08/03 02:27:31;;;;;;;;;;;21.40;79.50;;;;;;5021979;28;19920;-78
2022/08/03 02:30:01;;;;;;;;;;;21.40;79.50;;;;;;5025674;28;19928;-78
2022/08/03 02:32:30;;;;;;;;;;;21.40;80.40;;;;;;5040055;28;20011;-78
2022/08/03 02:34:56;;;;;;;;;;;21.40;79.70;;;;;;5040055;28;19919;-78
2022/08/03 02:37:24;;;;;;;;;;;21.30;79.60;;;;;;5022171;28;19912;-78
2022/08/03 02:39:52;;;;;;;;;;;21.30;79.60;;;;;;5029960;28;19960;-78
2022/08/03 02:42:19;;;;;;;;;;;21.30;79.90;;;;;;5030673;28;19913;-78
2022/08/03 02:44:47;;;;;;;;;;;21.30;79.90;;;;;;5030469;28;20024;-78
2022/08/03 02:47:14;;;;;;;;;;;21.30;80.10;;;;;;5032498;28;19929;-78
2022/08/03 02:49:40;;;;;;;;;;;21.20;80.20;;;;;;5041148;28;19981;-78
2022/08/03 02:52:09;;;;;;;;;;;21.20;80.20;;;;;;5023178;28;19921;-77
2022/08/03 02:54:37;;;;;;;;;;;21.20;80.00;;;;;;5040295;28;19953;-78
2022/08/03 02:57:02;;;;;;;;;;;21.20;80.20;;;;;;5040163;28;19976;-78
2022/08/03 02:59:30;;;;;;;;;;;21.20;80.50;;;;;;5039845;28;19913;-78
2022/08/03 03:01:56;;;;;;;;;;;21.10;80.40;;;;;;5033554;28;20162;-78
2022/08/03 03:04:22;;;;;;;;;;;21.20;80.50;;;;;;5034484;28;19917;-77
2022/08/03 03:06:47;;;;;;;;;;;21.10;80.40;;;;;;5018525;28;20008;-78
2022/08/03 03:09:13;;;;;;;;;;;21.10;80.60;;;;;;5024999;28;20020;-77
2022/08/03 03:11:39;;;;;;;;;;;21.10;81.30;;;;;;5028482;28;19957;-78
2022/08/03 03:14:06;;;;;;;;;;;21.10;80.60;;;;;;5039847;28;20471;-78
2022/08/03 03:16:32;;;;;;;;;;;21.10;81.40;;;;;;5026967;28;19966;-77
2022/08/03 03:18:58;;;;;;;;;;;21.10;80.90;;;;;;5022520;28;19958;-77
2022/08/03 03:21:24;;;;;;;;;;;21.00;80.80;;;;;;5029866;28;19928;-77
2022/08/03 03:23:50;;;;;;;;;;;21.00;80.90;;;;;;5031897;28;20008;-77
2022/08/03 03:26:16;;;;;;;;;;;21.00;80.90;;;;;;5021821;28;19992;-77
2022/08/03 03:28:41;;;;;;;;;;;21.00;81.50;;;;;;5022105;28;20393;-78
2022/08/03 03:31:07;;;;;;;;;;;21.00;81.10;;;;;;5003936;28;19913;-78
2022/08/03 03:33:33;;;;;;;;;;;20.90;81.10;;;;;;5039356;28;20398;-77
2022/08/03 03:35:59;;;;;;;;;;;20.90;81.20;;;;;;5036824;28;19993;-78
2022/08/03 03:38:24;;;;;;;;;;;20.90;81.20;;;;;;5016013;28;19918;-78
2022/08/03 03:40:50;;;;;;;;;;;20.90;81.30;;;;;;5022987;28;19923;-77
2022/08/03 03:43:17;;;;;;;;;;;20.90;81.30;;;;;;5021675;28;19956;-78
2022/08/03 03:45:43;;;;;;;;;;;20.90;81.50;;;;;;5027736;28;19944;-78
2022/08/03 03:48:08;;;;;;;;;;;20.90;81.40;;;;;;5031361;28;19913;-77
2022/08/03 03:50:35;;;;;;;;;;;20.80;81.40;;;;;;5036620;28;20461;-77
2022/08/03 03:53:01;;;;;;;;;;;20.80;81.40;;;;;;5026357;28;19909;-78
2022/08/03 03:55:27;;;;;;;;;;;20.80;81.40;;;;;;5027584;28;19918;-78
2022/08/03 03:57:53;;;;;;;;;;;20.80;81.60;;;;;;5021302;28;19921;-78
2022/08/03 04:00:18;;;;;;;;;;;20.80;81.50;;;;;;5005752;28;19928;-77
2022/08/03 04:02:44;;;;;;;;;;;20.80;81.50;;;;;;5021885;28;19913;-78
2022/08/03 04:10:57;;;;;;;;;;;20.70;81.50;;;;;;5021304;28;20552;-77
2022/08/03 04:13:24;;;;;;;;;;;20.70;81.70;;;;;;5033090;28;19957;-78
2022/08/03 04:15:50;;;;;;;;;;;20.70;81.60;;;;;;5039243;28;20359;-78
2022/08/03 04:18:16;;;;;;;;;;;20.70;81.60;;;;;;5042221;28;19913;-77
2022/08/03 04:20:46;;;;;;;;;;;20.60;81.60;;;;;;5024880;28;19948;-77
2022/08/03 04:23:12;;;;;;;;;;;20.60;81.60;;;;;;5024379;28;20019;-78
2022/08/03 04:25:39;;;;;;;;;;;20.60;81.70;;;;;;5042644;28;19913;-77
2022/08/03 04:28:04;;;;;;;;;;;20.60;81.70;;;;;;5027339;28;19921;-78
2022/08/03 04:30:32;;;;;;;;;;;20.60;81.90;;;;;;5024202;28;20458;-77
2022/08/03 04:32:57;;;;;;;;;;;20.60;81.70;;;;;;5026403;28;19935;-78
2022/08/03 04:35:24;;;;;;;;;;;20.60;81.90;;;;;;5024607;28;20666;-78
2022/08/03 04:37:51;;;;;;;;;;;20.60;81.90;;;;;;5035979;28;19914;-78
2022/08/03 04:40:43;;;;;;;;;;;20.60;81.70;;;;;;5028913;28;19943;-78
2022/08/03 04:43:10;;;;;;;;;;;20.60;81.90;;;;;;5022400;28;19914;-78
2022/08/03 04:45:36;;;;;;;;;;;20.60;81.90;;;;;;5029259;28;20008;-78
2022/08/03 04:48:02;;;;;;;;;;;20.60;82.00;;;;;;5038421;28;20023;-78
2022/08/03 04:50:28;;;;;;;;;;;20.60;81.90;;;;;;5042581;28;20040;-78
2022/08/03 04:52:54;;;;;;;;;;;20.60;81.90;;;;;;5024366;28;20621;-77
2022/08/03 04:55:26;;;;;;;;;;;20.50;81.90;;;;;;5006844;28;19920;-78
2022/08/03 04:57:52;;;;;;;;;;;20.50;81.80;;;;;;5024031;28;20456;-78
2022/08/03 05:00:17;;;;;;;;;;;20.50;81.80;;;;;;5024159;28;19999;-78
2022/08/03 05:02:43;;;;;;;;;;;20.50;81.90;;;;;;5027225;28;19916;-78
2022/08/03 05:05:08;;;;;;;;;;;20.50;82.00;;;;;;5042808;28;20097;-77
2022/08/03 05:07:34;;;;;;;;;;;20.50;81.90;;;;;;5017253;28;20004;-78
2022/08/03 05:09:59;;;;;;;;;;;20.50;81.80;;;;;;5027391;28;19913;-77
2022/08/03 05:12:25;;;;;;;;;;;20.50;81.80;;;;;;5038110;28;19969;-78
2022/08/03 05:14:50;;;;;;;;;;;20.50;81.90;;;;;;5024160;28;20007;-77
2022/08/03 05:17:16;;;;;;;;;;;20.50;81.90;;;;;;5013372;28;19990;-77
2022/08/03 05:19:41;;;;;;;;;;;20.50;81.90;;;;;;5037297;28;19920;-78
2022/08/03 05:22:07;;;;;;;;;;;20.50;81.80;;;;;;5043007;28;20589;-78
2022/08/03 05:24:32;;;;;;;;;;;20.50;81.80;;;;;;5042971;28;19912;-78
2022/08/03 05:26:58;;;;;;;;;;;20.50;81.80;;;;;;5038193;28;19913;-78
2022/08/03 05:29:23;;;;;;;;;;;20.50;81.90;;;;;;5029602;28;20336;-78
2022/08/03 05:31:49;;;;;;;;;;;20.50;81.70;;;;;;5038156;28;19925;-78
2022/08/03 05:34:14;;;;;;;;;;;20.50;81.80;;;;;;5024118;28;19920;-77
2022/08/03 05:36:40;;;;;;;;;;;20.50;81.70;;;;;;5023305;28;20010;-77
2022/08/03 05:39:06;;;;;;;;;;;20.50;81.60;;;;;;5038726;28;19921;-78
2022/08/03 05:41:31;;;;;;;;;;;20.50;81.60;;;;;;5023780;28;20475;-77
2022/08/03 05:43:57;;;;;;;;;;;20.50;81.70;;;;;;5022490;28;19923;-77
2022/08/03 05:46:22;;;;;;;;;;;20.50;81.60;;;;;;5029699;28;19965;-78
2022/08/03 05:48:48;;;;;;;;;;;20.50;81.70;;;;;;5024073;28;19909;-78
2022/08/03 05:51:13;;;;;;;;;;;20.50;81.30;;;;;;5023646;28;19913;-77
2022/08/03 05:53:42;;;;;;;;;;;20.50;81.20;;;;;;5012532;28;19940;-77
2022/08/03 05:56:08;;;;;;;;;;;20.50;81.00;;;;;;5023244;28;19935;-77
2022/08/03 05:58:34;;;;;;;;;;;20.50;80.90;;;;;;5023010;28;19957;-78
2022/08/03 06:00:59;;;;;;;;;;;20.50;80.60;;;;;;5023281;28;19917;-77
2022/08/03 06:03:25;;;;;;;;;;;20.50;80.80;;;;;;5031255;28;19921;-77
2022/08/03 06:05:52;;;;;;;;;;;20.50;80.70;;;;;;5023206;28;19996;-77
2022/08/03 06:08:17;;;;;;;;;;;20.50;80.60;;;;;;5041095;28;19932;-77
2022/08/03 06:10:43;;;;;;;;;;;20.50;80.50;;;;;;5037637;28;20377;-77
2022/08/03 06:13:08;;;;;;;;;;;20.60;80.50;;;;;;5040560;28;19913;-77
2022/08/03 06:15:34;;;;;;;;;;;20.60;80.40;;;;;;5023494;28;19997;-78
2022/08/03 06:17:59;;;;;;;;;;;20.60;80.10;;;;;;5009151;28;20020;-78
2022/08/03 06:20:25;;;;;;;;;;;20.60;80.30;;;;;;5041238;28;19990;-78
2022/08/03 06:22:51;;;;;;;;;;;20.70;80.20;;;;;;5034900;28;20509;-77
2022/08/03 06:25:18;;;;;;;;;;;20.70;80.00;;;;;;5029064;28;20705;-78
2022/08/03 06:27:43;;;;;;;;;;;20.70;80.20;;;;;;5038665;28;19912;-77
2022/08/03 06:30:10;;;;;;;;;;;20.70;79.90;;;;;;5005414;28;19921;-78
2022/08/03 06:32:39;;;;;;;;;;;20.70;79.90;;;;;;5041338;28;19916;-77
2022/08/03 06:35:05;;;;;;;;;;;20.70;79.70;;;;;;5017858;28;19913;-77
2022/08/03 06:37:31;;;;;;;;;;;20.80;79.80;;;;;;5030411;28;19955;-77
2022/08/03 06:39:56;;;;;;;;;;;20.80;79.60;;;;;;5005326;28;19925;-78
2022/08/03 06:42:21;;;;;;;;;;;20.80;79.60;;;;;;5023426;28;20004;-78
2022/08/03 06:44:47;;;;;;;;;;;20.80;79.40;;;;;;5022327;28;20288;-77
2022/08/03 06:47:12;;;;;;;;;;;20.90;79.30;;;;;;5032847;28;20331;-78
2022/08/03 06:49:39;;;;;;;;;;;20.90;79.30;;;;;;5041388;28;20001;-77
2022/08/03 06:52:05;;;;;;;;;;;20.90;79.10;;;;;;5044707;28;19916;-78
2022/08/03 06:54:30;;;;;;;;;;;20.90;78.90;;;;;;5038076;28;19948;-78
2022/08/03 06:56:56;;;;;;;;;;;21.00;79.00;;;;;;5022998;28;20024;-78
2022/08/03 06:59:21;;;;;;;;;;;21.00;78.80;;;;;;5022557;28;19917;-77
2022/08/03 07:01:47;;;;;;;;;;;21.00;78.60;;;;;;5022935;28;19916;-77
2022/08/03 07:04:12;;;;;;;;;;;21.00;78.60;;;;;;5045839;28;19915;-77
2022/08/03 07:06:38;;;;;;;;;;;21.10;78.80;;;;;;5039556;28;20011;-77
2022/08/03 07:09:04;;;;;;;;;;;21.10;79.00;;;;;;5034545;28;20004;-78
2022/08/03 07:11:29;;;;;;;;;;;21.10;78.50;;;;;;5023199;28;20440;-78
2022/08/03 07:13:55;;;;;;;;;;;21.20;78.50;;;;;;5017929;28;19909;-77
2022/08/03 07:16:21;;;;;;;;;;;21.20;78.30;;;;;;5028327;28;19966;-78
2022/08/03 07:18:46;;;;;;;;;;;21.20;78.20;;;;;;5023032;28;19925;-78
2022/08/03 07:21:12;;;;;;;;;;;21.20;78.10;;;;;;5004450;28;19917;-78
2022/08/03 07:23:37;;;;;;;;;;;21.30;78.20;;;;;;5028396;28;19913;-77
2022/08/03 07:26:03;;;;;;;;;;;21.30;78.30;;;;;;5040845;28;20053;-78
2022/08/03 07:28:28;;;;;;;;;;;21.30;78.30;;;;;;5027250;28;20416;-78
2022/08/03 07:30:54;;;;;;;;;;;21.40;78.10;;;;;;5036367;28;20397;-79
2022/08/03 07:33:19;;;;;;;;;;;21.40;77.90;;;;;;5022811;28;19920;-78
2022/08/03 07:35:45;;;;;;;;;;;21.40;78.10;;;;;;5036098;28;20575;-78
2022/08/03 07:38:10;;;;;;;;;;;21.50;78.00;;;;;;5022661;28;19909;-78
2022/08/03 07:40:36;;;;;;;;;;;21.50;78.00;;;;;;5035167;28;19921;-78
2022/08/03 07:43:02;;;;;;;;;;;21.50;77.90;;;;;;5038301;28;20006;-78
2022/08/03 07:45:29;;;;;;;;;;;21.60;77.60;;;;;;5031718;28;20401;-78
2022/08/03 07:47:54;;;;;;;;;;;21.60;77.70;;;;;;5037116;28;20395;-78
2022/08/03 07:50:20;;;;;;;;;;;21.60;77.70;;;;;;5033391;28;19917;-78
2022/08/03 07:52:50;;;;;;;;;;;21.70;77.40;;;;;;5033129;28;19988;-77
2022/08/03 07:55:16;;;;;;;;;;;21.70;77.70;;;;;;5017214;28;19925;-78
2022/08/03 07:57:42;;;;;;;;;;;21.80;77.70;;;;;;5025265;28;20035;-78
2022/08/03 08:00:18;;;;;;;;;;;21.80;77.40;;;;;;5025463;28;19939;-78
2022/08/03 08:02:44;;;;;;;;;;;21.80;77.30;;;;;;5023089;28;19932;-78
2022/08/03 08:05:10;;;;;;;;;;;21.90;77.50;;;;;;5037634;28;19917;-77
2022/08/03 08:07:35;;;;;;;;;;;21.90;77.10;;;;;;5029167;28;20424;-77
2022/08/03 08:10:01;;;;;;;;;;;22.00;77.30;;;;;;5027650;28;19959;-78
2022/08/03 08:12:27;;;;;;;;;;;22.00;77.00;;;;;;5043849;28;20288;-78
2022/08/03 08:14:52;;;;;;;;;;;22.00;77.20;;;;;;5025349;28;19982;-78
2022/08/03 08:17:18;;;;;;;;;;;22.10;76.90;;;;;;5013771;28;20032;-77
2022/08/03 08:19:44;;;;;;;;;;;22.10;77.80;;;;;;5025409;28;19924;-78
2022/08/03 08:22:09;;;;;;;;;;;22.20;77.60;;;;;;5014119;28;19913;-78
2022/08/03 08:24:35;;;;;;;;;;;22.20;76.80;;;;;;5013964;28;19916;-78
2022/08/03 08:27:00;;;;;;;;;;;22.20;76.70;;;;;;5043777;28;19996;-78
2022/08/03 08:29:26;;;;;;;;;;;22.30;76.70;;;;;;5029773;28;20490;-78
2022/08/03 08:31:51;;;;;;;;;;;22.30;76.50;;;;;;5032734;28;19914;-78
2022/08/03 08:34:17;;;;;;;;;;;22.30;76.40;;;;;;5024727;28;20395;-78
2022/08/03 08:36:42;;;;;;;;;;;22.40;76.70;;;;;;5042886;28;19913;-77
2022/08/03 08:39:08;;;;;;;;;;;22.40;76.40;;;;;;5038398;28;20333;-78
2022/08/03 08:41:34;;;;;;;;;;;22.40;76.00;;;;;;5034834;28;20446;-78
2022/08/03 08:44:00;;;;;;;;;;;22.50;76.00;;;;;;5037951;28;19924;-78
2022/08/03 08:46:25;;;;;;;;;;;22.50;76.10;;;;;;5028657;28;19932;-78
2022/08/03 08:48:52;;;;;;;;;;;22.60;76.20;;;;;;5035759;28;19917;-78
2022/08/03 08:51:19;;;;;;;;;;;22.60;75.90;;;;;;5027098;28;19913;-78
2022/08/03 08:53:46;;;;;;;;;;;22.70;75.60;;;;;;5030660;28;19916;-78
2022/08/03 08:56:16;;;;;;;;;;;22.70;75.60;;;;;;5023768;28;19920;-78
2022/08/03 08:58:50;;;;;;;;;;;22.80;75.40;;;;;;5028078;28;19920;-78
2022/08/03 09:01:19;;;;;;;;;;;22.80;75.40;;;;;;5043326;28;19916;-78
2022/08/03 09:03:45;;;;;;;;;;;22.90;75.20;;;;;;5024119;28;19916;-78
2022/08/03 09:06:10;;;;;;;;;;;23.00;75.00;;;;;;5013752;28;19957;-77
2022/08/03 09:08:36;;;;;;;;;;;23.00;75.20;;;;;;5048599;28;19917;-77
2022/08/03 09:11:01;;;;;;;;;;;23.10;74.90;;;;;;5024170;28;20024;-77
2022/08/03 09:13:28;;;;;;;;;;;23.10;75.10;;;;;;5027725;28;20453;-77
2022/08/03 09:16:07;;;;;;;;;;;23.10;74.70;;;;;;5014431;28;20014;-77
2022/08/03 09:18:33;;;;;;;;;;;23.20;74.90;;;;;;5020114;28;19920;-78
2022/08/03 09:21:13;;;;;;;;;;;23.30;74.80;;;;;;5043373;28;19916;-77
2022/08/03 09:23:46;;;;;;;;;;;23.30;74.60;;;;;;5043612;28;19991;-77
2022/08/03 09:26:18;;;;;;;;;;;23.40;74.60;;;;;;5058167;28;19913;-77
2022/08/03 09:28:43;;;;;;;;;;;23.40;74.40;;;;;;5033888;28;19962;-78
2022/08/03 09:31:09;;;;;;;;;;;23.50;74.30;;;;;;5023469;28;20452;-78
2022/08/03 09:33:45;;;;;;;;;;;23.50;73.80;;;;;;5057844;28;19913;-78
2022/08/03 09:36:30;;;;;;;;;;;23.60;74.00;;;;;;5041652;28;19915;-78
2022/08/03 09:39:05;;;;;;;;;;;23.60;73.80;;;;;;5022800;28;20630;-78
2022/08/03 09:41:31;;;;;;;;;;;23.70;73.60;;;;;;5023886;28;19917;-77
2022/08/03 09:43:56;;;;;;;;;;;23.80;73.60;;;;;;5024136;28;20504;-77
2022/08/03 09:46:22;;;;;;;;;;;23.80;73.40;;;;;;5023777;28;20000;-77
2022/08/03 09:48:47;;;;;;;;;;;23.90;74.00;;;;;;5009631;28;20003;-76
2022/08/03 09:51:14;;;;;;;;;;;23.90;73.40;;;;;;5042376;28;20362;-77
2022/08/03 09:53:43;;;;;;;;;;;24.00;73.10;;;;;;5042384;27;19924;-77
2022/08/03 09:56:08;;;;;;;;;;;24.10;73.10;;;;;;5042223;28;19999;-77
2022/08/03 09:58:43;;;;;;;;;;;24.10;72.90;;;;;;5032641;28;20369;-77
2022/08/03 10:01:08;;;;;;;;;;;24.10;72.80;;;;;;5023672;28;19917;-76
2022/08/03 10:03:35;;;;;;;;;;;24.30;72.70;;;;;;5042411;28;20061;-78
2022/08/03 10:06:19;;;;;;;;;;;24.30;72.50;;;;;;5031812;28;19940;-77
2022/08/03 10:08:45;;;;;;;;;;;24.30;72.40;;;;;;5023742;28;19920;-77
2022/08/03 10:11:10;;;;;;;;;;;24.40;72.10;;;;;;5023641;28;19913;-77
2022/08/03 10:13:36;;;;;;;;;;;24.50;72.10;;;;;;5023607;28;19917;-77
2022/08/03 10:16:03;;;;;;;;;;;24.50;72.00;;;;;;5005054;28;19973;-77
2022/08/03 10:18:29;;;;;;;;;;;24.60;72.00;;;;;;5023212;28;19924;-77
2022/08/03 10:21:00;;;;;;;;;;;24.70;71.80;;;;;;5022965;28;19928;-78
2022/08/03 10:23:26;;;;;;;;;;;24.70;71.80;;;;;;5023564;28;19920;-76
2022/08/03 10:25:52;;;;;;;;;;;24.80;71.70;;;;;;5030218;28;19913;-77
2022/08/03 10:28:18;;;;;;;;;;;24.80;71.80;;;;;;5023120;28;19920;-77
2022/08/03 10:30:47;;;;;;;;;;;24.90;71.60;;;;;;5023260;28;19917;-76
2022/08/03 10:33:25;;;;;;;;;;;25.00;71.80;;;;;;5023207;28;20447;-77
2022/08/03 10:35:53;;;;;;;;;;;25.00;71.70;;;;;;5022857;28;19924;-77
2022/08/03 10:38:20;;;;;;;;;;;25.10;72.00;;;;;;5040959;28;19973;-77
2022/08/03 10:40:48;;;;;;;;;;;25.10;71.80;;;;;;5041274;28;19917;-77
2022/08/03 10:43:21;;;;;;;;;;;25.20;72.00;;;;;;5041058;28;19921;-77
2022/08/03 10:45:47;;;;;;;;;;;25.30;72.10;;;;;;5033761;28;20027;-77
2022/08/03 10:48:13;;;;;;;;;;;25.30;71.90;;;;;;5022688;28;19996;-77
2022/08/03 10:50:42;;;;;;;;;;;25.40;71.80;;;;;;5017681;28;19924;-77
2022/08/03 10:53:07;;;;;;;;;;;25.60;71.90;;;;;;5041683;28;19913;-77
2022/08/03 10:58:37;;;;;;;;;;;25.70;72.00;;;;;;5030108;28;20021;-77
2022/08/03 11:01:03;;;;;;;;;;;25.90;72.30;;;;;;5015519;28;19917;-77
2022/08/03 11:03:28;;;;;;;;;;;25.90;72.00;;;;;;5002342;28;19913;-77
2022/08/03 11:06:12;;;;;;;;;;;26.10;72.70;;;;;;5031115;28;19913;-77
2022/08/03 11:08:38;;;;;;;;;;;26.10;72.40;;;;;;5026152;28;19923;-77
2022/08/03 11:11:15;;;;;;;;;;;26.30;72.60;;;;;;5040113;28;19920;-77
2022/08/03 11:13:55;;;;;;;;;;;26.30;72.60;;;;;;5040911;28;19909;-77
2022/08/03 11:16:22;;;;;;;;;;;26.50;72.90;;;;;;5028844;28;19996;-77
2022/08/03 11:18:57;;;;;;;;;;;26.60;72.60;;;;;;5022289;28;20357;-77
2022/08/03 11:21:41;;;;;;;;;;;26.70;72.90;;;;;;5004632;28;20012;-77
2022/08/03 11:24:07;;;;;;;;;;;26.90;73.00;;;;;;5004354;28;20285;-76
2022/08/03 11:26:33;;;;;;;;;;;27.00;72.70;;;;;;5021514;28;19909;-76
2022/08/03 11:29:17;;;;;;;;;;;27.10;72.90;;;;;;5022486;28;19909;-77
2022/08/03 11:31:43;;;;;;;;;;;27.20;73.90;;;;;;5021922;28;19916;-76
2022/08/03 11:34:09;;;;;;;;;;;27.30;73.00;;;;;;5004357;28;19958;-77
2022/08/03 11:36:54;;;;;;;;;;;27.40;72.80;;;;;;5021873;28;19913;-76
2022/08/03 11:39:19;;;;;;;;;;;27.50;73.10;;;;;;5022398;28;19956;-77
2022/08/03 11:41:45;;;;;;;;;;;27.60;72.80;;;;;;5017640;28;20501;-77
2022/08/03 11:44:30;;;;;;;;;;;27.70;73.60;;;;;;5040271;28;20361;-77
2022/08/03 11:46:56;;;;;;;;;;;27.80;72.60;;;;;;5034914;28;20028;-76
2022/08/03 11:49:22;;;;;;;;;;;27.90;72.90;;;;;;5040222;28;20003;-76
2022/08/03 11:51:52;;;;;;;;;;;28.00;72.30;;;;;;5040162;28;19920;-76
2022/08/03 11:54:18;;;;;;;;;;;28.10;73.00;;;;;;5021941;28;19920;-76
2022/08/03 11:56:44;;;;;;;;;;;28.10;72.60;;;;;;5007157;28;19917;-76
2022/08/03 11:59:09;;;;;;;;;;;28.20;72.80;;;;;;5030450;28;19913;-76
2022/08/03 12:01:36;;;;;;;;;;;28.30;71.60;;;;;;5040655;28;19990;-77
2022/08/03 12:04:05;;;;;;;;;;;28.40;72.90;;;;;;5022876;28;20358;-76
2022/08/03 12:06:53;;;;;;;;;;;28.50;73.20;;;;;;5026031;28;20514;-77
2022/08/03 12:09:16;;;;;;;;;;;28.50;71.70;;;;;;5021520;28;19982;-76
2022/08/03 12:11:42;;;;;;;;;;;28.60;72.60;;;;;;5021560;28;19918;-76
2022/08/03 12:14:07;;;;;;;;;;;28.70;72.50;;;;;;5021201;28;19913;-76
2022/08/03 12:16:33;;;;;;;;;;;28.70;72.40;;;;;;5020282;28;20022;-77
2022/08/03 12:18:59;;;;;;;;;;;28.70;72.70;;;;;;5020638;28;19928;-76
2022/08/03 12:21:25;;;;;;;;;;;28.80;73.10;;;;;;5020746;28;19924;-77
2022/08/03 12:23:55;;;;;;;;;;;28.80;72.90;;;;;;5002847;28;19928;-77
2022/08/03 12:26:20;;;;;;;;;;;28.90;72.60;;;;;;5020405;28;19913;-76
2022/08/03 12:28:47;;;;;;;;;;;29.00;72.20;;;;;;5002382;28;19928;-76
2022/08/03 12:31:12;;;;;;;;;;;29.10;72.90;;;;;;5035198;28;20003;-77
2022/08/03 12:34:13;;;;;;;;;;;29.20;72.70;;;;;;5020142;28;20035;-76
2022/08/03 12:36:49;;;;;;;;;;;29.30;72.50;;;;;;4975985;28;19931;-76
2022/08/03 12:39:14;;;;;;;;;;;29.30;71.70;;;;;;5015341;28;19913;-77
2022/08/03 12:41:40;;;;;;;;;;;29.40;72.50;;;;;;5023142;28;19923;-77
2022/08/03 12:44:06;;;;;;;;;;;29.40;72.30;;;;;;5023919;28;19909;-77
2022/08/03 12:46:35;;;;;;;;;;;29.40;71.50;;;;;;5024023;28;19921;-77
2022/08/03 12:49:01;;;;;;;;;;;29.50;70.70;;;;;;5034086;28;19921;-77
2022/08/03 12:51:27;;;;;;;;;;;29.60;71.60;;;;;;5036178;28;20361;-77
2022/08/03 12:53:53;;;;;;;;;;;29.70;71.90;;;;;;5042566;28;19921;-77
2022/08/03 12:56:19;;;;;;;;;;;29.70;71.60;;;;;;5042123;28;19912;-77
2022/08/03 12:58:46;;;;;;;;;;;29.80;71.40;;;;;;5032490;28;19919;-77
2022/08/03 13:01:12;;;;;;;;;;;29.80;70.20;;;;;;5022069;28;19959;-77
2022/08/03 13:03:48;;;;;;;;;;;29.90;71.60;;;;;;5004194;28;19913;-77
2022/08/03 13:06:14;;;;;;;;;;;29.90;70.70;;;;;;5003996;28;19909;-77
2022/08/03 13:08:40;;;;;;;;;;;29.90;70.70;;;;;;5005185;28;19917;-77
2022/08/03 13:11:18;;;;;;;;;;;30.00;71.80;;;;;;5022500;28;20134;-76
2022/08/03 13:13:44;;;;;;;;;;;30.10;72.00;;;;;;5004701;28;19950;-77
2022/08/03 13:16:10;;;;;;;;;;;30.20;72.20;;;;;;5003677;28;19928;-77
2022/08/03 13:18:35;;;;;;;;;;;30.20;72.20;;;;;;5040136;28;20251;-77
2022/08/03 13:21:01;;;;;;;;;;;30.20;71.80;;;;;;5040051;28;19923;-77
2022/08/03 13:23:26;;;;;;;;;;;30.30;72.40;;;;;;5018486;28;19917;-77
2022/08/03 13:25:52;;;;;;;;;;;30.20;71.10;;;;;;5022696;28;19960;-77
2022/08/03 13:28:17;;;;;;;;;;;30.30;72.20;;;;;;5034865;28;19913;-76
2022/08/03 13:30:43;;;;;;;;;;;30.30;72.10;;;;;;5022398;28;19909;-76
2022/08/03 13:33:08;;;;;;;;;;;30.40;72.30;;;;;;5022165;28;19913;-76
2022/08/03 13:35:34;;;;;;;;;;;30.50;72.30;;;;;;5022650;28;19917;-77
2022/08/03 13:37:59;;;;;;;;;;;30.50;71.90;;;;;;5021852;28;19913;-77
2022/08/03 13:40:25;;;;;;;;;;;30.60;71.60;;;;;;5034234;28;19928;-77
2022/08/03 13:42:50;;;;;;;;;;;30.70;71.00;;;;;;5040793;28;19944;-77
2022/08/03 13:45:16;;;;;;;;;;;30.70;70.10;;;;;;5037638;28;19925;-77
2022/08/03 13:47:41;;;;;;;;;;;30.80;71.20;;;;;;5008933;28;20008;-77
2022/08/03 13:50:07;;;;;;;;;;;30.80;68.60;;;;;;5021592;28;20366;-77
2022/08/03 13:52:33;;;;;;;;;;;30.90;69.40;;;;;;5004418;28;19920;-77
2022/08/03 13:54:59;;;;;;;;;;;31.00;69.10;;;;;;5022631;28;19992;-77
2022/08/03 13:57:25;;;;;;;;;;;31.10;70.20;;;;;;5022828;28;19917;-77
2022/08/03 13:59:50;;;;;;;;;;;31.10;68.50;;;;;;5037757;28;19913;-77
2022/08/03 14:02:16;;;;;;;;;;;31.20;68.30;;;;;;5041516;28;19917;-77
2022/08/03 14:04:41;;;;;;;;;;;31.20;68.80;;;;;;5041381;28;20611;-77
2022/08/03 14:07:07;;;;;;;;;;;31.30;69.80;;;;;;5036757;28;20428;-77
2022/08/03 14:09:32;;;;;;;;;;;31.30;69.90;;;;;;5052497;28;19943;-77
2022/08/03 14:11:59;;;;;;;;;;;31.30;68.40;;;;;;5023197;28;19917;-78
2022/08/03 14:14:24;;;;;;;;;;;31.30;68.60;;;;;;5040920;28;19924;-77
2022/08/03 14:16:50;;;;;;;;;;;31.40;69.60;;;;;;5025301;28;19913;-77
2022/08/03 14:19:15;;;;;;;;;;;31.40;69.80;;;;;;5004679;28;19913;-76
2022/08/03 14:21:41;;;;;;;;;;;31.50;69.00;;;;;;5034475;28;19923;-77
2022/08/03 14:24:06;;;;;;;;;;;31.50;69.70;;;;;;5040660;28;19916;-77
2022/08/03 14:26:32;;;;;;;;;;;31.60;67.90;;;;;;5027752;28;19963;-77